Hatboro, PA

1:26 PM EDT on March 26, 2017 (GMT -0400)
north hatboro | | Change Station

Elev 246 ft 40.17 °N, 75.12 °W | Updated 15 seconds ago

Overcast
Overcast
42.7 °F
Feels Like 40 °F
N
4.0
Wind Variable Wind from East

Today
High -- | Low -- °F
--% Chance of Precip.
Yesterday
High -- | Low -- °F
Precip. -- in
Pressure 30.43 in
Visibility 10.0 miles
Clouds Overcast 1400 ft
Windchill 40 °F
Dew Point 37 °F
Humidity 80%
Rainfall 0.00 in
Snow Depth Not available.
6:53 AM 7:18 PM
Waning Crescent, 3% visible
METAR KPNE 261654Z 08015KT 10SM OVC014 07/03 A3043 RMK AO2 SLP305 T00670028
Pressure 30.43 in
Visibility 10.0 miles
Clouds Overcast 1400 ft
Windchill 40 °F
Dew Point 37 °F
Humidity 80%
Rainfall 0.00 in
Snow Depth Not available.
6:53 AM 7:18 PM
Waning Crescent, 3% visible
METAR KPNE 261654Z 08015KT 10SM OVC014 07/03 A3043 RMK AO2 SLP305 T00670028

Get Severe Weather Alerts

Thanks for signing up!

Be on the lookout for a verification email in your inbox.

You'll start receiving the daily forecast at 8 AM.

×

10-Day Weather Forecast

Almanac

Astronomy

Mar. 26, 2017 Rise Set
Actual Time
Civil Twilight
Nautical Twilight
Astronomical Twilight
Moon
Length of Visible Light
Length of Day
Tomorrow will be .
, % of the Moon is Illuminated

Today's Extremes

State Highs State Lows

Community

WunderPhotos

Upload Photos

1,962,540 photos uploaded!

WunderBlog® & News

Nearby

Air Quality

  Air Quality AQ Index Pollutant
Not available.

Snow Depth

Station Depth Elevation

Earthquake Activity

City Distance Mag. Time & Date
Minimum magnitude displayed is 2.5.

Earthquake Activity

City Distance Mag. Time & Date
Minimum magnitude displayed is 2.5.

Coastal Water Temperatures

Place Temperature

Stations

Nearby Weather Stations

Station Location Temp. Windchill Dew Point Humidity Wind Precip. Elev Updated Type
                   

Watches & Warnings

There are currently no watches in effect.